Time;durP1;ratioP1;P1;durP2;ratioP2;P2;SDS_P1;SDS_P2;PMS_P1;PMS_P2;Temp;Humidity;BMP_temperature;BMP_pressure;BME280_temperature;BME280_humidity;BME280_pressure;Samples;Min_cycle;Max_cycle;Signal;HPM_P1;HPM_P2
2022/08/08 00:00:05;;;;;;;6.20;4.05;;;;;;;18.24;72.80;95803.32;1707802;84;21545;-72
2022/08/08 00:02:55;;;;;;;7.30;4.15;;;;;;;18.15;73.91;95804.14;1700798;84;21039;-72
2022/08/08 00:06:06;;;;;;;4.87;4.12;;;;;;;18.08;74.30;95802.68;1737603;82;21508;-72
2022/08/08 00:08:44;;;;;;;5.55;3.65;;;;;;;18.04;73.94;95802.44;1706830;84;21058;-72
2022/08/08 00:11:42;;;;;;;4.78;3.60;;;;;;;18.02;73.91;95806.97;1737712;83;21480;-72
2022/08/08 00:14:29;;;;;;;4.95;3.83;;;;;;;17.98;73.68;95802.70;1706755;84;21038;-72
2022/08/08 00:17:20;;;;;;;4.67;3.60;;;;;;;17.95;74.42;95809.04;1706839;84;21157;-72
2022/08/08 00:20:01;;;;;;;4.10;3.70;;;;;;;18.02;73.92;95804.78;1736947;83;21552;-72
2022/08/08 00:22:45;;;;;;;3.98;3.47;;;;;;;18.11;74.10;95807.88;1706668;84;21030;-71
2022/08/08 00:25:26;;;;;;;4.30;3.67;;;;;;;18.13;74.16;95799.34;1706770;84;21112;-72
2022/08/08 00:27:58;;;;;;;3.87;3.47;;;;;;;18.16;74.03;95801.00;1706533;83;21003;-72
2022/08/08 00:30:35;;;;;;;4.20;3.30;;;;;;;18.13;74.26;95800.67;1707133;84;21453;-72
2022/08/08 00:33:17;;;;;;;5.42;3.70;;;;;;;18.07;74.36;95803.63;1737608;83;21034;-72
2022/08/08 00:36:14;;;;;;;5.95;3.80;;;;;;;18.05;73.93;95797.95;1706829;83;21521;-72
2022/08/08 00:38:49;;;;;;;5.58;3.40;;;;;;;18.02;74.04;95803.45;1706603;84;21035;-72
2022/08/08 00:41:30;;;;;;;4.42;3.70;;;;;;;18.02;74.70;95806.97;1730841;83;21035;-71
2022/08/08 00:44:07;;;;;;;4.35;3.65;;;;;;;17.96;75.47;95801.89;1723312;83;21368;-72
2022/08/08 00:46:59;;;;;;;4.80;3.85;;;;;;;17.97;74.52;95800.97;1724340;83;21070;-72
2022/08/08 00:50:08;;;;;;;7.12;3.22;;;;;;;18.04;74.68;95806.89;1724080;83;21597;-72
2022/08/08 00:52:58;;;;;;;3.95;3.55;;;;;;;18.02;74.76;95801.64;1705175;83;21014;-72
2022/08/08 00:56:19;;;;;;;4.47;3.37;;;;;;;17.96;75.44;95793.87;1724408;82;21118;-72
2022/08/08 00:59:23;;;;;;;6.40;3.75;;;;;;;18.02;75.44;95801.64;1724343;83;21093;-72
2022/08/08 01:02:30;;;;;;;3.98;2.98;;;;;;;18.04;75.26;95795.77;1681613;83;21485;-72
2022/08/08 01:05:29;;;;;;;3.98;3.58;;;;;;;17.93;74.56;95797.55;1724445;82;21006;-72
2022/08/08 01:08:18;;;;;;;7.03;3.77;;;;;;;17.85;74.83;95792.17;1724277;82;21039;-72
2022/08/08 01:11:31;;;;;;;4.53;3.87;;;;;;;17.85;74.95;95794.36;1720659;83;21015;-72
2022/08/08 01:14:25;;;;;;;5.95;3.70;;;;;;;17.91;74.67;95802.56;1723850;83;21015;-72
2022/08/08 01:17:25;;;;;;;4.15;3.22;;;;;;;17.91;75.59;95803.89;1724507;83;21038;-72
2022/08/08 01:20:48;;;;;;;6.78;3.62;;;;;;;17.92;75.54;95796.30;1662157;86;20995;-72
2022/08/08 01:23:41;;;;;;;4.10;3.52;;;;;;;17.98;75.19;95799.16;1724547;83;21006;-72
2022/08/08 01:26:30;;;;;;;4.10;3.50;;;;;;;17.95;76.03;95793.49;1724281;83;21059;-72
2022/08/08 01:29:17;;;;;;;3.87;3.35;;;;;;;17.94;75.99;95794.41;1723674;83;21051;-72
2022/08/08 01:32:23;;;;;;;4.30;3.90;;;;;;;17.97;76.02;95794.74;1723990;83;21026;-72
2022/08/08 01:35:16;;;;;;;4.03;3.37;;;;;;;18.05;76.20;95796.16;1724383;83;21026;-72
2022/08/08 01:37:50;;;;;;;5.17;3.50;;;;;;;18.09;75.40;95795.09;1724030;83;21027;-72
2022/08/08 01:40:48;;;;;;;4.08;3.30;;;;;;;18.06;75.97;95795.20;1695999;83;21042;-72
2022/08/08 01:43:52;;;;;;;4.10;3.70;;;;;;;17.99;75.48;95787.06;1724149;83;21031;-72
2022/08/08 01:46:46;;;;;;;5.17;3.50;;;;;;;17.97;75.49;95790.30;1724126;83;21031;-72
2022/08/08 01:49:38;;;;;;;5.65;3.83;;;;;;;17.91;76.08;95787.88;1695812;83;21055;-72
2022/08/08 01:52:44;;;;;;;5.72;4.33;;;;;;;17.86;76.56;95782.73;1724136;83;21086;-71
2022/08/08 01:55:21;;;;;;;8.70;3.98;;;;;;;17.90;76.23;95780.34;1723942;83;21092;-72
2022/08/08 01:58:23;;;;;;;7.20;4.40;;;;;;;17.80;75.84;95783.02;1723911;83;20999;-72
2022/08/08 02:01:13;;;;;;;5.28;3.95;;;;;;;17.83;76.15;95780.21;1724025;83;21007;-72
2022/08/08 02:04:21;;;;;;;5.30;4.22;;;;;;;17.77;76.54;95776.94;1724494;82;21517;-72
2022/08/08 02:07:00;;;;;;;5.47;3.83;;;;;;;17.76;77.35;95780.52;1724268;83;20976;-72
2022/08/08 02:10:13;;;;;;;7.97;5.12;;;;;;;17.71;76.68;95777.60;1723529;83;21046;-72
2022/08/08 02:13:10;;;;;;;6.47;4.55;;;;;;;17.67;76.60;95775.98;1724202;83;21010;-72
2022/08/08 02:15:45;;;;;;;6.97;4.80;;;;;;;17.65;77.80;95774.33;1695785;83;21082;-72
2022/08/08 02:18:32;;;;;;;5.60;4.20;;;;;;;17.63;77.61;95771.70;1723110;83;20995;-72
2022/08/08 02:24:19;;;;;;;6.37;3.92;;;;;;;17.57;77.60;95777.33;1724620;83;21030;-72
2022/08/08 02:27:09;;;;;;;4.17;3.77;;;;;;;17.60;78.01;95783.86;1724436;83;21010;-72
2022/08/08 02:29:56;;;;;;;5.70;4.42;;;;;;;17.60;77.98;95779.85;1724724;83;21014;-72
2022/08/08 02:32:57;;;;;;;4.62;4.10;;;;;;;17.59;77.93;95782.13;1724625;82;21030;-72
2022/08/08 02:36:12;;;;;;;4.65;3.90;;;;;;;17.56;78.19;95779.58;1723459;83;20983;-72
2022/08/08 02:39:10;;;;;;;5.05;4.10;;;;;;;17.61;78.38;95787.38;1724450;83;21038;-72
2022/08/08 02:41:47;;;;;;;5.10;3.92;;;;;;;17.69;78.04;95786.14;1721275;82;21360;-72
2022/08/08 02:44:35;;;;;;;6.47;3.80;;;;;;;17.71;77.48;95785.61;1686617;84;21063;-72
2022/08/08 02:47:34;;;;;;;5.67;3.50;;;;;;;17.76;77.28;95788.52;1716606;83;20988;-72
2022/08/08 02:50:37;;;;;;;5.80;3.98;;;;;;;17.78;77.37;95785.33;1715845;84;21477;-72
2022/08/08 02:53:27;;;;;;;4.35;3.45;;;;;;;17.71;77.84;95786.05;1686889;84;20987;-72
2022/08/08 02:56:31;;;;;;;4.45;3.47;;;;;;;17.76;77.71;95781.38;1716557;83;21541;-72
2022/08/08 02:59:24;;;;;;;4.15;3.52;;;;;;;17.73;77.55;95788.19;1636527;85;21539;-72
2022/08/08 03:02:25;;;;;;;7.35;3.70;;;;;;;17.62;77.55;95786.47;1741456;81;21513;-72
2022/08/08 03:05:16;;;;;;;4.78;3.98;;;;;;;17.59;77.26;95790.14;1779657;81;21023;-72
2022/08/08 03:08:07;;;;;;;8.18;3.92;;;;;;;17.58;77.60;95787.52;1779280;81;21067;-73
2022/08/08 03:11:30;;;;;;;6.17;4.05;;;;;;;17.58;78.37;95791.53;1770810;81;20983;-72
2022/08/08 03:14:39;;;;;;;5.17;3.98;;;;;;;17.53;78.20;95792.58;1779728;80;21082;-72
2022/08/08 03:17:18;;;;;;;4.50;3.75;;;;;;;17.45;77.94;95789.85;1779555;80;21003;-72
2022/08/08 03:20:20;;;;;;;4.00;3.60;;;;;;;17.39;78.78;95794.98;1777457;81;21050;-72
2022/08/08 03:22:28;;;;;;;4.37;3.98;;;;;;;17.39;77.99;95788.32;1771846;81;20959;-73
2022/08/08 03:24:55;;;;;;;8.63;4.17;;;;;;;17.49;77.87;95791.47;1779465;80;21041;-72
2022/08/08 03:27:47;;;;;;;5.12;4.62;;;;;;;17.48;77.75;95799.05;1779566;80;21493;-72
2022/08/08 03:30:14;;;;;;;4.83;4.03;;;;;;;17.38;78.39;95794.56;1779560;81;21070;-72
2022/08/08 03:35:28;;;;;;;5.55;4.00;;;;;;;17.42;78.29;95803.33;1779688;81;21081;-72
2022/08/08 03:37:56;;;;;;;4.90;4.37;;;;;;;17.45;77.73;95806.72;1779220;80;20987;-71
2022/08/08 03:40:24;;;;;;;4.83;4.17;;;;;;;17.37;78.40;95805.32;1751238;81;21003;-71
2022/08/08 03:42:51;;;;;;;5.53;4.78;;;;;;;17.32;78.31;95812.17;1779404;81;21070;-72
2022/08/08 03:45:24;;;;;;;5.62;4.50;;;;;;;17.37;78.37;95807.98;1779136;81;21031;-72
2022/08/08 03:48:04;;;;;;;10.20;4.80;;;;;;;17.40;78.39;95809.19;1779466;80;20967;-72
2022/08/08 03:50:34;;;;;;;6.03;4.83;;;;;;;17.41;78.21;95805.57;1779353;81;21011;-72
2022/08/08 03:53:11;;;;;;;6.40;4.58;;;;;;;17.37;78.60;95807.52;1779402;80;21046;-72
2022/08/08 03:55:44;;;;;;;5.25;4.62;;;;;;;17.37;78.62;95807.98;1779230;80;21049;-72
2022/08/08 03:58:20;;;;;;;5.70;4.42;;;;;;;17.39;78.43;95808.80;1779304;81;21010;-72
2022/08/08 04:00:53;;;;;;;4.97;4.45;;;;;;;17.38;78.33;95809.70;1779391;81;21030;-72
2022/08/08 04:03:21;;;;;;;5.58;4.85;;;;;;;17.42;79.15;95809.99;1779339;81;21552;-73
2022/08/08 04:05:48;;;;;;;7.60;4.95;;;;;;;17.46;78.96;95810.25;1779234;80;21074;-72
2022/08/08 04:08:19;;;;;;;6.30;4.60;;;;;;;17.63;79.06;95807.73;1779282;81;21003;-72
2022/08/08 04:10:50;;;;;;;6.47;4.90;;;;;;;17.79;78.32;95810.63;1779526;81;21038;-72
2022/08/08 04:13:21;;;;;;;5.87;5.15;;;;;;;17.91;77.87;95819.44;1779365;80;21022;-72
2022/08/08 04:15:50;;;;;;;;;;;;;;;17.94;77.68;95822.00;1781026;81;21018;-72
2022/08/08 04:18:17;;;;;;;7.70;5.08;;;;;;;17.95;78.04;95823.72;1779428;81;20148;-72
2022/08/08 04:20:43;;;;;;;9.18;4.62;;;;;;;18.03;77.79;95825.19;1779295;81;21022;-72
2022/08/08 04:23:10;;;;;;;7.35;5.40;;;;;;;18.04;77.46;95823.80;1779309;81;21019;-72
2022/08/08 04:25:37;;;;;;;7.28;5.45;;;;;;;18.09;77.41;95820.90;1779283;81;21065;-72
2022/08/08 04:28:04;;;;;;;6.92;5.90;;;;;;;18.14;78.39;95827.80;1779646;81;20980;-72
2022/08/08 04:30:30;;;;;;;8.80;6.55;;;;;;;18.32;78.46;95823.42;1779192;81;21457;-72
2022/08/08 04:32:57;;;;;;;9.40;6.42;;;;;;;18.53;77.71;95824.70;1779555;81;21003;-72
2022/08/08 04:35:26;;;;;;;7.47;6.22;;;;;;;18.69;77.32;95820.84;1778844;81;21114;-73
2022/08/08 04:37:54;;;;;;;7.35;6.65;;;;;;;18.88;76.81;95831.11;1779565;81;21022;-72
2022/08/08 04:40:22;;;;;;;8.30;6.05;;;;;;;19.06;76.26;95833.37;1778871;81;21051;-72
2022/08/08 04:42:51;;;;;;;7.95;7.12;;;;;;;19.19;76.08;95826.95;1783165;80;21497;-72
2022/08/08 04:45:18;;;;;;;20.40;7.55;;;;;;;19.29;75.59;95824.70;1785045;80;21054;-73
2022/08/08 04:47:45;;;;;;;9.08;8.18;;;;;;;19.41;75.47;95824.95;1784908;80;21417;-73
2022/08/08 04:50:13;;;;;;;9.43;7.65;;;;;;;19.53;74.87;95822.59;1784871;80;21113;-72
2022/08/08 04:52:40;;;;;;;9.60;7.45;;;;;;;19.63;74.63;95821.18;1784872;80;21026;-72
2022/08/08 04:55:09;;;;;;;10.08;8.68;;;;;;;19.72;74.45;95822.09;1784004;80;21023;-73
2022/08/08 04:57:35;;;;;;;9.83;7.75;;;;;;;19.84;74.25;95833.52;1784829;80;21488;-72
2022/08/08 05:00:06;;;;;;;10.58;8.40;;;;;;;19.94;74.04;95829.04;1784728;80;21726;-72
2022/08/08 05:02:33;;;;;;;9.18;7.97;;;;;;;20.02;73.93;95824.14;1784911;80;21050;-73
2022/08/08 05:05:00;;;;;;;9.35;8.45;;;;;;;20.03;72.85;95824.08;1784783;80;21012;-72
2022/08/08 05:07:29;;;;;;;9.45;8.35;;;;;;;20.05;72.55;95828.00;1785027;80;20983;-72
2022/08/08 05:09:56;;;;;;;10.45;7.78;;;;;;;20.17;73.05;95830.03;1784970;80;20975;-73
2022/08/08 05:12:23;;;;;;;8.93;8.03;;;;;;;20.28;72.72;95824.95;1784611;80;21061;-72
2022/08/08 05:14:50;;;;;;;10.25;7.80;;;;;;;20.41;72.60;95823.86;1784863;80;20991;-73
2022/08/08 05:17:17;;;;;;;8.80;7.92;;;;;;;20.48;72.25;95837.30;1784886;80;21098;-73
2022/08/08 05:19:44;;;;;;;9.23;7.92;;;;;;;20.49;71.76;95832.34;1784914;80;20979;-73
2022/08/08 05:22:12;;;;;;;10.10;7.83;;;;;;;20.48;72.07;95838.63;1784496;80;21015;-72
2022/08/08 05:24:44;;;;;;;10.03;7.87;;;;;;;20.52;72.44;95835.33;1784965;80;20978;-72
2022/08/08 05:27:10;;;;;;;10.30;7.85;;;;;;;20.57;72.11;95833.30;1785026;80;21003;-73
2022/08/08 05:29:39;;;;;;;9.63;7.42;;;;;;;20.59;71.90;95832.75;1784870;80;20943;-73
2022/08/08 05:32:08;;;;;;;7.78;7.00;;;;;;;20.64;71.85;95833.84;1784809;80;21007;-72
2022/08/08 05:34:48;;;;;;;8.65;7.78;;;;;;;20.68;70.63;95828.69;1784858;80;21084;-72
2022/08/08 05:37:21;;;;;;;8.90;7.20;;;;;;;20.73;70.97;95826.61;1784785;80;21015;-72
2022/08/08 05:39:55;;;;;;;8.60;6.97;;;;;;;20.92;71.22;95827.81;1783600;80;21021;-72
2022/08/08 05:42:28;;;;;;;9.50;7.50;;;;;;;21.11;70.80;95822.27;1784577;80;21038;-72
2022/08/08 05:44:57;;;;;;;8.83;7.40;;;;;;;21.26;70.21;95823.22;1781903;80;21565;-72
2022/08/08 05:47:24;;;;;;;7.75;6.95;;;;;;;21.43;69.80;95825.83;1758566;80;21018;-74
2022/08/08 05:49:51;;;;;;;11.68;7.35;;;;;;;21.63;68.55;95829.19;1784786;80;21528;-73
2022/08/08 05:52:19;;;;;;;12.28;6.80;;;;;;;21.80;67.85;95825.03;1785001;80;21038;-74
2022/08/08 05:54:46;;;;;;;10.63;6.55;;;;;;;22.00;68.19;95823.36;1784835;80;21014;-73
2022/08/08 05:57:16;;;;;;;12.63;6.95;;;;;;;22.18;67.31;95828.09;1784492;80;20976;-73
2022/08/08 05:59:48;;;;;;;15.00;7.45;;;;;;;22.32;65.50;95823.72;1784942;80;21484;-74
2022/08/08 06:05:16;;;;;;;14.18;6.95;;;;;;;22.51;65.73;95821.63;1785007;80;20974;-73
2022/08/08 06:07:46;;;;;;;9.88;6.47;;;;;;;22.61;63.91;95816.06;1758726;80;21010;-73
2022/08/08 06:10:14;;;;;;;9.85;6.00;;;;;;;22.65;63.28;95818.95;1784762;80;20998;-73
2022/08/08 06:12:44;;;;;;;16.12;6.62;;;;;;;22.67;63.00;95814.80;1784829;80;21485;-72
2022/08/08 06:15:11;;;;;;;12.95;6.37;;;;;;;22.78;63.79;95821.73;1784784;80;20999;-73
2022/08/08 06:17:41;;;;;;;9.30;7.03;;;;;;;22.82;63.35;95819.70;1758368;80;21003;-72
2022/08/08 06:20:11;;;;;;;12.60;6.67;;;;;;;22.79;63.23;95819.90;1784831;80;21536;-72
2022/08/08 06:22:39;;;;;;;10.72;6.58;;;;;;;22.75;63.46;95829.11;1758627;80;20999;-72
2022/08/08 06:25:09;;;;;;;16.55;7.20;;;;;;;22.73;63.54;95831.92;1783950;80;21034;-72
2022/08/08 06:27:46;;;;;;;17.65;7.40;;;;;;;22.77;62.94;95824.02;1785039;80;20995;-72
2022/08/08 06:30:15;;;;;;;17.67;6.65;;;;;;;22.92;63.56;95826.70;1739111;80;20983;-72
2022/08/08 06:32:50;;;;;;;10.50;6.47;;;;;;;23.08;63.26;95825.67;1784839;80;21046;-72
2022/08/08 06:35:18;;;;;;;16.55;6.50;;;;;;;23.22;62.74;95827.45;1758991;80;21058;-72
2022/08/08 06:37:54;;;;;;;11.30;7.90;;;;;;;23.32;62.74;95828.58;1784655;80;21003;-72
2022/08/08 06:40:25;;;;;;;12.73;7.17;;;;;;;23.43;62.05;95830.55;1782885;80;21029;-72
2022/08/08 06:43:00;;;;;;;15.88;7.22;;;;;;;23.50;60.59;95832.37;1755603;81;21023;-72
2022/08/08 06:45:32;;;;;;;11.83;7.30;;;;;;;23.54;60.61;95833.91;1779410;80;21031;-71
2022/08/08 06:47:59;;;;;;;9.95;7.67;;;;;;;23.63;60.02;95823.85;1751163;81;21014;-71
2022/08/08 06:50:27;;;;;;;18.77;7.60;;;;;;;23.72;59.82;95824.63;1779427;81;21011;-72
2022/08/08 06:52:54;;;;;;;14.50;7.28;;;;;;;23.89;60.29;95826.19;1779431;80;21010;-72
2022/08/08 06:55:24;;;;;;;15.08;8.30;;;;;;;24.09;59.71;95827.53;1779044;81;21051;-72
2022/08/08 06:57:50;;;;;;;8.83;6.80;;;;;;;24.15;59.05;95824.40;1779530;81;21045;-72
2022/08/08 07:00:18;;;;;;;11.78;7.85;;;;;;;24.23;59.70;95825.22;1778858;81;21080;-72
2022/08/08 07:02:54;;;;;;;11.48;7.80;;;;;;;24.42;59.92;95826.16;1779535;80;20979;-72
2022/08/08 07:05:25;;;;;;;9.68;7.80;;;;;;;24.61;58.02;95824.41;1778750;81;21019;-73
2022/08/08 07:08:13;;;;;;;8.63;7.40;;;;;;;24.78;56.91;95821.86;1779714;81;20959;-72
2022/08/08 07:10:51;;;;;;;9.95;7.72;;;;;;;24.89;56.89;95817.89;1778926;81;20991;-73
2022/08/08 07:13:19;;;;;;;8.65;7.33;;;;;;;25.09;57.06;95827.75;1779507;81;21425;-72
2022/08/08 07:16:27;;;;;;;10.78;7.55;;;;;;;25.17;56.31;95821.33;1779558;81;21066;-72
2022/08/08 07:19:28;;;;;;;13.72;7.53;;;;;;;25.22;54.59;95817.34;1779568;81;21025;-72
2022/08/08 07:22:06;;;;;;;8.23;7.40;;;;;;;25.46;55.59;95820.55;1779300;81;21063;-72
2022/08/08 07:24:44;;;;;;;9.23;7.45;;;;;;;25.66;54.26;95815.00;1779390;80;21002;-72
2022/08/08 07:27:14;;;;;;;7.97;7.12;;;;;;;25.80;53.72;95815.30;1779550;80;21003;-72
2022/08/08 07:29:41;;;;;;;8.33;7.05;;;;;;;25.95;54.01;95815.52;1779360;81;20991;-72
2022/08/08 07:32:11;;;;;;;9.00;7.90;;;;;;;26.12;52.86;95815.59;1779449;81;21011;-72
2022/08/08 07:34:37;;;;;;;10.28;6.90;;;;;;;26.25;53.25;95817.70;1779369;80;21539;-73
2022/08/08 07:37:07;;;;;;;7.72;7.03;;;;;;;26.33;52.21;95819.34;1779302;81;21023;-72
2022/08/08 07:39:36;;;;;;;6.87;6.17;;;;;;;26.43;51.65;95816.76;1779513;81;20975;-72
2022/08/08 07:42:04;;;;;;;10.45;7.50;;;;;;;26.53;51.10;95819.64;1779276;81;20999;-72
2022/08/08 07:44:31;;;;;;;7.62;6.92;;;;;;;26.67;51.27;95821.28;1779149;81;21067;-72
2022/08/08 07:46:58;;;;;;;8.33;7.03;;;;;;;26.87;51.48;95819.19;1779362;81;21477;-71
2022/08/08 07:49:25;;;;;;;7.35;6.65;;;;;;;27.05;51.04;95824.13;1779480;81;21504;-72
2022/08/08 07:51:53;;;;;;;7.42;6.72;;;;;;;27.22;50.76;95822.80;1779407;81;21051;-72
2022/08/08 07:54:37;;;;;;;9.20;6.60;;;;;;;27.22;49.33;95818.23;1779600;80;21066;-72
2022/08/08 07:57:20;;;;;;;10.30;6.70;;;;;;;27.27;50.22;95816.01;1779123;81;21011;-72
2022/08/08 07:59:52;;;;;;;6.85;6.25;;;;;;;27.54;50.32;95811.53;1779733;80;20967;-72
2022/08/08 08:02:26;;;;;;;7.12;6.42;;;;;;;27.75;48.95;95811.58;1778902;81;21478;-71
2022/08/08 08:04:58;;;;;;;7.08;6.45;;;;;;;27.95;48.96;95812.64;1779304;80;21521;-72
2022/08/08 08:07:26;;;;;;;8.98;6.62;;;;;;;28.03;48.33;95814.20;1779524;80;21011;-72
2022/08/08 08:09:55;;;;;;;11.95;6.28;;;;;;;28.14;47.82;95817.36;1778858;81;21011;-72
2022/08/08 08:12:24;;;;;;;7.25;6.58;;;;;;;28.32;48.25;95821.70;1779483;81;21123;-72
2022/08/08 08:15:03;;;;;;;7.42;6.60;;;;;;;28.47;47.08;95823.63;1779448;81;21492;-72
2022/08/08 08:17:30;;;;;;;7.65;6.08;;;;;;;28.23;47.12;95822.51;1779752;80;21010;-72
2022/08/08 08:20:02;;;;;;;9.80;6.67;;;;;;;27.81;47.65;95817.86;1779460;81;20986;-72
2022/08/08 08:22:29;;;;;;;6.80;6.10;;;;;;;27.44;48.74;95827.30;1779599;80;21054;-72
2022/08/08 08:24:57;;;;;;;7.30;6.47;;;;;;;27.19;49.52;95832.03;1779059;81;21019;-72
2022/08/08 08:27:24;;;;;;;9.10;6.70;;;;;;;26.93;49.93;95836.29;1779426;81;21011;-71
2022/08/08 08:29:52;;;;;;;7.47;6.17;;;;;;;26.72;50.64;95848.34;1779654;81;21051;-72
2022/08/08 08:32:20;;;;;;;6.58;5.97;;;;;;;26.43;51.43;95840.25;1779543;81;21034;-72
2022/08/08 08:34:48;;;;;;;8.98;6.28;;;;;;;26.21;51.92;95835.17;1779330;81;21552;-72
2022/08/08 08:37:15;;;;;;;9.58;6.12;;;;;;;26.03;52.40;95832.50;1779131;81;21082;-72
2022/08/08 08:39:42;;;;;;;6.83;6.15;;;;;;;25.89;52.58;95840.33;1779329;80;21046;-72
2022/08/08 08:42:11;;;;;;;6.87;6.20;;;;;;;25.79;52.92;95841.47;1779385;81;21457;-72
2022/08/08 08:44:39;;;;;;;11.18;6.20;;;;;;;25.71;53.30;95843.90;1779386;80;21101;-72
2022/08/08 08:47:06;;;;;;;7.42;6.30;;;;;;;25.63;53.54;95847.17;1779290;81;21010;-71
2022/08/08 08:49:33;;;;;;;12.40;7.65;;;;;;;25.57;54.07;95849.46;1779290;81;20991;-72
2022/08/08 08:52:03;;;;;;;10.48;6.55;;;;;;;25.48;54.26;95849.17;1779449;80;21033;-72
2022/08/08 08:54:34;;;;;;;10.10;7.15;;;;;;;25.42;54.39;95866.31;1779468;81;21452;-72
2022/08/08 08:57:05;;;;;;;7.90;6.03;;;;;;;25.34;54.66;95861.47;1779130;80;21008;-71
2022/08/08 08:59:35;;;;;;;7.78;5.90;;;;;;;25.29;54.43;95861.44;1779337;80;21475;-71
2022/08/08 09:02:04;;;;;;;6.33;5.25;;;;;;;25.22;54.04;95859.20;1779451;81;21027;-71
2022/08/08 09:04:34;;;;;;;5.97;5.47;;;;;;;25.19;53.69;95858.05;1751444;81;21043;-72
2022/08/08 09:07:04;;;;;;;7.53;5.20;;;;;;;25.20;53.67;95862.48;1779516;81;20997;-71
2022/08/08 09:09:35;;;;;;;7.95;5.28;;;;;;;25.14;53.16;95862.87;1751200;81;21047;-71
2022/08/08 09:12:11;;;;;;;8.80;4.85;;;;;;;24.97;52.23;95861.87;1778150;81;21002;-71
2022/08/08 09:14:41;;;;;;;7.00;5.12;;;;;;;24.78;52.54;95869.09;1779221;81;21525;-71
2022/08/08 09:17:09;;;;;;;6.50;5.17;;;;;;;24.65;53.22;95875.84;1779125;80;21140;-71
2022/08/08 09:19:36;;;;;;;6.15;5.60;;;;;;;24.58;53.81;95892.07;1779516;80;20998;-71
2022/08/08 09:22:05;;;;;;;9.38;5.20;;;;;;;24.51;54.01;95892.11;1751084;81;21022;-71
2022/08/08 09:24:34;;;;;;;7.78;5.45;;;;;;;24.44;54.22;95889.42;1779350;81;21514;-71
2022/08/08 09:27:11;;;;;;;6.87;4.78;;;;;;;24.37;54.37;95884.46;1778949;81;21498;-72
2022/08/08 09:30:01;;;;;;;5.55;5.05;;;;;;;24.29;54.81;95889.53;1779306;81;21050;-72
2022/08/08 09:32:43;;;;;;;17.37;6.80;;;;;;;24.21;55.09;95889.66;1779426;81;21112;-71
2022/08/08 09:35:14;;;;;;;15.68;5.42;;;;;;;24.08;56.56;95938.14;1776920;81;21453;-71
2022/08/08 09:37:51;;;;;;;20.95;7.85;;;;;;;23.56;59.59;96017.80;1779467;81;21088;-71
2022/08/08 09:40:24;;;;;;;13.70;4.78;;;;;;;22.44;65.11;96095.39;1778964;81;21066;-70
2022/08/08 09:43:16;;;;;;;12.03;4.40;;;;;;;21.10;67.16;96011.05;1779515;80;21457;-70
2022/08/08 09:46:01;;;;;;;7.50;4.25;;;;;;;20.27;67.89;95965.25;1784834;80;21082;-70
2022/08/08 09:48:32;;;;;;;6.03;4.20;;;;;;;19.57;74.70;95952.18;1784493;80;21081;-72
2022/08/08 09:50:59;;;;;;;10.50;4.45;;;;;;;19.33;73.55;95955.58;1784837;80;21539;-71
2022/08/08 09:53:31;;;;;;;7.30;4.15;;;;;;;19.07;74.99;95948.75;1784925;80;21524;-71
2022/08/08 09:55:58;;;;;;;4.78;3.65;;;;;;;18.99;77.39;95961.14;1783880;80;21006;-71
2022/08/08 09:58:28;;;;;;;7.03;4.40;;;;;;;18.89;77.49;95969.19;1784569;80;21022;-70
2022/08/08 10:00:57;;;;;;;7.92;4.50;;;;;;;18.75;77.37;95976.95;1785134;80;20990;-71
2022/08/08 10:03:27;;;;;;;6.10;3.67;;;;;;;18.73;78.78;95976.14;1784608;80;21145;-70
2022/08/08 10:05:54;;;;;;;6.03;4.42;;;;;;;18.76;78.83;95964.87;1784930;80;21049;-70
2022/08/08 10:08:21;;;;;;;5.90;3.35;;;;;;;18.71;79.06;95953.48;1784942;80;21023;-70
2022/08/08 10:10:48;;;;;;;6.80;4.55;;;;;;;18.66;80.17;95955.49;1785017;80;20974;-70
2022/08/08 10:13:21;;;;;;;5.85;4.70;;;;;;;18.63;81.94;95954.30;1785112;80;21006;-71
2022/08/08 10:15:52;;;;;;;6.00;4.83;;;;;;;18.67;82.18;95957.69;1785359;80;21491;-71
2022/08/08 10:18:34;;;;;;;8.43;4.75;;;;;;;18.73;81.67;95956.95;1785055;80;21018;-71
2022/08/08 10:21:11;;;;;;;5.75;4.70;;;;;;;18.85;80.78;95964.94;1785289;80;21022;-71
2022/08/08 10:23:44;;;;;;;7.47;4.85;;;;;;;18.92;80.91;95970.38;1784738;80;21137;-71
2022/08/08 10:26:33;;;;;;;7.78;5.75;;;;;;;19.01;82.35;95972.64;1784675;80;20995;-71
2022/08/08 10:29:08;;;;;;;5.30;4.80;;;;;;;19.13;82.52;95967.69;1784564;80;21050;-71
2022/08/08 10:34:26;;;;;;;6.95;5.10;;;;;;;19.34;83.22;95968.48;1784528;80;21023;-70
2022/08/08 10:36:55;;;;;;;7.70;5.10;;;;;;;19.41;83.22;95964.09;1785018;80;21021;-70
2022/08/08 10:39:25;;;;;;;7.58;4.95;;;;;;;19.42;82.28;95967.16;1785011;80;21007;-70
2022/08/08 10:42:01;;;;;;;7.40;4.90;;;;;;;19.45;82.84;95967.04;1784817;80;20987;-70
2022/08/08 10:44:40;;;;;;;9.08;5.15;;;;;;;19.44;83.53;95959.07;1781378;80;21106;-70
2022/08/08 10:47:14;;;;;;;6.50;5.00;;;;;;;19.44;83.62;95953.72;1780007;81;20987;-70
2022/08/08 10:49:51;;;;;;;5.83;5.00;;;;;;;19.46;84.10;95949.17;1779556;81;21493;-70
2022/08/08 10:52:32;;;;;;;6.80;5.08;;;;;;;19.47;83.96;95942.86;1779443;81;20967;-71
2022/08/08 10:55:14;;;;;;;8.03;5.03;;;;;;;19.49;82.74;95934.30;1779520;80;21089;-71
2022/08/08 10:57:45;;;;;;;9.38;5.53;;;;;;;19.49;83.24;95917.38;1779588;81;21046;-71
2022/08/08 11:00:23;;;;;;;5.53;5.03;;;;;;;19.52;82.68;95912.72;1779357;80;21497;-71
2022/08/08 11:02:51;;;;;;;6.47;4.62;;;;;;;19.54;82.71;95914.00;1779301;80;21018;-71
2022/08/08 11:05:18;;;;;;;8.88;4.87;;;;;;;19.55;82.79;95927.77;1779490;81;20974;-71
2022/08/08 11:07:53;;;;;;;8.05;5.47;;;;;;;19.55;83.38;95935.80;1779271;80;21066;-71
2022/08/08 11:10:22;;;;;;;6.40;5.35;;;;;;;19.57;83.50;95932.58;1779544;80;20955;-71
2022/08/08 11:12:55;;;;;;;7.97;6.20;;;;;;;19.57;84.44;95916.05;1779276;80;20987;-71
2022/08/08 11:15:24;;;;;;;7.20;5.10;;;;;;;19.60;85.20;95903.84;1779509;80;21540;-71
2022/08/08 11:17:52;;;;;;;9.73;5.78;;;;;;;19.63;83.72;95895.69;1779510;81;20999;-71
2022/08/08 11:20:26;;;;;;;6.83;5.33;;;;;;;19.71;83.52;95902.51;1779351;81;21014;-70
2022/08/08 11:22:56;;;;;;;10.00;5.47;;;;;;;19.75;84.63;95907.61;1779544;81;21011;-71
2022/08/08 11:25:30;;;;;;;7.42;5.05;;;;;;;19.79;83.70;95905.18;1779689;80;21051;-71
2022/08/08 11:27:59;;;;;;;8.73;5.35;;;;;;;19.82;83.43;95905.02;1779350;80;20984;-71
2022/08/08 11:30:29;;;;;;;6.30;5.30;;;;;;;19.84;83.72;95897.78;1779490;80;20979;-71
2022/08/08 11:33:02;;;;;;;6.78;5.42;;;;;;;19.96;83.57;95899.44;1779143;81;21514;-71
2022/08/08 11:35:29;;;;;;;;;;;;;;;20.02;83.72;95904.50;1782156;81;21037;-71
2022/08/08 11:37:56;;;;;;;8.18;5.45;;;;;;;20.14;83.87;95916.41;1779403;81;20394;-71
2022/08/08 11:40:22;;;;;;;8.13;5.37;;;;;;;20.16;83.16;95926.55;1779525;81;20998;-70
2022/08/08 11:42:51;;;;;;;6.40;5.37;;;;;;;20.18;83.19;95917.96;1779390;80;21002;-71
2022/08/08 11:45:21;;;;;;;5.75;4.97;;;;;;;20.28;83.39;95912.05;1783919;80;21061;-71
2022/08/08 11:47:48;;;;;;;8.43;5.30;;;;;;;20.34;84.16;95904.66;1784919;80;21026;-71
2022/08/08 11:50:20;;;;;;;6.45;5.08;;;;;;;20.36;83.77;95895.59;1785017;80;21500;-71
2022/08/08 11:52:47;;;;;;;7.17;5.22;;;;;;;20.41;83.29;95893.98;1784950;80;21562;-71
2022/08/08 11:55:18;;;;;;;5.55;5.00;;;;;;;20.44;82.79;95901.89;1785119;80;20959;-71
2022/08/08 11:57:45;;;;;;;7.12;4.80;;;;;;;20.44;82.62;95903.23;1784005;80;21083;-71
2022/08/08 12:00:17;;;;;;;7.85;5.05;;;;;;;20.41;83.01;95903.37;1785180;80;21038;-71
2022/08/08 12:02:53;;;;;;;5.72;5.22;;;;;;;20.39;82.23;95908.83;1785037;80;21078;-71
2022/08/08 12:05:34;;;;;;;6.55;5.50;;;;;;;20.42;82.73;95910.48;1785004;80;20998;-71
2022/08/08 12:08:02;;;;;;;6.75;5.30;;;;;;;20.41;82.54;95923.02;1785159;80;21041;-71
2022/08/08 12:10:30;;;;;;;6.42;4.83;;;;;;;20.36;82.30;95922.39;1784867;80;21487;-71
2022/08/08 12:13:10;;;;;;;8.03;5.60;;;;;;;20.36;82.10;95925.08;1784572;80;21047;-71
2022/08/08 12:15:47;;;;;;;7.65;5.92;;;;;;;20.33;83.41;95919.84;1784837;80;21472;-71
2022/08/08 12:18:24;;;;;;;7.78;5.97;;;;;;;20.35;83.41;95926.00;1783728;80;21082;-71
2022/08/08 12:20:54;;;;;;;6.35;5.60;;;;;;;20.38;84.00;95927.66;1781436;80;21051;-71
2022/08/08 12:23:35;;;;;;;6.30;5.50;;;;;;;20.44;83.44;95935.39;1784783;80;21014;-71
2022/08/08 12:26:09;;;;;;;6.97;5.42;;;;;;;20.49;83.27;95942.72;1785045;80;20947;-71